PWSweather.com
Personal Weather Stations
Station Observations
KMNGREYC2
Grey Cloud Island, Grey Cloud Island, MN 55071

Grey Cloud IslandGrey Cloud Island, MN 55071

Lat: 44.799333, Lon: -92.987851

Elevation: 700

Station Type: Davis VP2

www.jagielski.com/weather/conditions.htm

High Low Average
Temperature 33.6°F0.9°C 28.8°F-1.8°C 31.8°F-0.1°C
Dew Point 31.5°F-0.3°C 25.4°F-3.7°C 28.4°F-2.0°C
Winds 13.0 mph 20.9 kmh Calm Calm 3.0 mph S4.8 kmh S
Wind Gusts 18.0 mph29.0 kmh 5.0 mph8.0 kmh 12.0 mph19.3 kmh
Humidity 95% 77% 87%
Pressure 29.99 in1015.6 mb 29.51 in999.3 mb -
Precipitation 0.00 in0.0 mm - -
Hour Temp Dew Point Humidity Winds Wind Gusts Pressure Precip Precip Rate Daily Precip Total
12:00 AM 32.8°F0.4°C 31.5°F-0.3°C 95% 1.0 mph NNE1.6 kmh NNE 17.0 mph27.4 kmh 29.52 in999.7 mb 0.00 in0.0 mm 0.00 in0.0 mm 0.00 in0.0 mm
12:15 AM 32.7°F0.4°C 31.4°F-0.3°C 95% 3.0 mph NNE4.8 kmh NNE 12.0 mph19.3 kmh 29.52 in999.7 mb 0.00 in0.0 mm 0.00 in0.0 mm 0.00 in0.0 mm
12:30 AM 32.6°F0.3°C 31.3°F-0.4°C 95% 12.0 mph NNE19.3 kmh NNE 14.0 mph22.5 kmh 29.52 in999.7 mb 0.00 in0.0 mm 0.00 in0.0 mm 0.00 in0.0 mm
12:45 AM 32.6°F0.3°C 31.3°F-0.4°C 95% 3.0 mph NE4.8 kmh NE 11.0 mph17.7 kmh 29.52 in999.7 mb 0.00 in0.0 mm 0.00 in0.0 mm 0.00 in0.0 mm
01:00 AM 32.6°F0.3°C 31.3°F-0.4°C 95% 4.0 mph NE6.4 kmh NE 14.0 mph22.5 kmh 29.52 in999.7 mb 0.00 in0.0 mm 0.00 in0.0 mm 0.00 in0.0 mm
01:15 AM 32.5°F0.3°C 31.2°F-0.4°C 95% 1.0 mph NE1.6 kmh NE 11.0 mph17.7 kmh 29.52 in999.7 mb 0.00 in0.0 mm 0.00 in0.0 mm 0.00 in0.0 mm
01:30 AM 32.5°F0.3°C 31.2°F-0.4°C 95% 3.0 mph NE4.8 kmh NE 11.0 mph17.7 kmh 29.51 in999.3 mb 0.00 in0.0 mm 0.00 in0.0 mm 0.00 in0.0 mm
01:45 AM 32.6°F0.3°C 31.3°F-0.4°C 95% 3.0 mph NE4.8 kmh NE 9.0 mph14.5 kmh 29.51 in999.3 mb 0.00 in0.0 mm 0.00 in0.0 mm 0.00 in0.0 mm
02:00 AM 32.6°F0.3°C 31.3°F-0.4°C 95% 9.0 mph NE14.5 kmh NE 12.0 mph19.3 kmh 29.52 in999.7 mb 0.00 in0.0 mm 0.00 in0.0 mm 0.00 in0.0 mm
02:15 AM 32.6°F0.3°C 31.3°F-0.4°C 95% 2.0 mph ENE3.2 kmh ENE 12.0 mph19.3 kmh 29.52 in999.7 mb 0.00 in0.0 mm 0.00 in0.0 mm 0.00 in0.0 mm
02:30 AM 32.6°F0.3°C 31.3°F-0.4°C 95% 3.0 mph NE4.8 kmh NE 14.0 mph22.5 kmh 29.52 in999.7 mb 0.00 in0.0 mm 0.00 in0.0 mm 0.00 in0.0 mm
02:45 AM 32.6°F0.3°C 31.3°F-0.4°C 95% Calm Calm 9.0 mph14.5 kmh 29.52 in999.7 mb 0.00 in0.0 mm 0.00 in0.0 mm 0.00 in0.0 mm
03:00 AM 32.7°F0.4°C 31.2°F-0.4°C 94% 3.0 mph ENE4.8 kmh ENE 11.0 mph17.7 kmh 29.52 in999.7 mb 0.00 in0.0 mm 0.00 in0.0 mm 0.00 in0.0 mm
03:15 AM 32.8°F0.4°C 31.3°F-0.4°C 94% 1.0 mph NNW1.6 kmh NNW 18.0 mph29.0 kmh 29.53 in1000.0 mb 0.00 in0.0 mm 0.00 in0.0 mm 0.00 in0.0 mm
03:30 AM 32.9°F0.5°C 31.1°F-0.5°C 93% 2.0 mph N3.2 kmh N 18.0 mph29.0 kmh 29.53 in1000.0 mb 0.00 in0.0 mm 0.00 in0.0 mm 0.00 in0.0 mm
03:45 AM 32.9°F0.5°C 31.1°F-0.5°C 93% 2.0 mph NNW3.2 kmh NNW 8.0 mph12.9 kmh 29.53 in1000.0 mb 0.00 in0.0 mm 0.00 in0.0 mm 0.00 in0.0 mm
04:00 AM 33.0°F0.6°C 31.2°F-0.4°C 93% 3.0 mph NE4.8 kmh NE 12.0 mph19.3 kmh 29.53 in1000.0 mb 0.00 in0.0 mm 0.00 in0.0 mm 0.00 in0.0 mm
04:15 AM 33.0°F0.6°C 31.2°F-0.4°C 93% Calm Calm 11.0 mph17.7 kmh 29.53 in1000.0 mb 0.00 in0.0 mm 0.00 in0.0 mm 0.00 in0.0 mm
04:30 AM 33.0°F0.6°C 31.2°F-0.4°C 93% 6.0 mph NE9.7 kmh NE 13.0 mph20.9 kmh 29.54 in1000.3 mb 0.00 in0.0 mm 0.00 in0.0 mm 0.00 in0.0 mm
04:45 AM 32.9°F0.5°C 31.1°F-0.5°C 93% 1.0 mph N1.6 kmh N 11.0 mph17.7 kmh 29.54 in1000.3 mb 0.00 in0.0 mm 0.00 in0.0 mm 0.00 in0.0 mm
05:00 AM 32.6°F0.3°C 31.1°F-0.5°C 94% 3.0 mph NNE4.8 kmh NNE 11.0 mph17.7 kmh 29.55 in1000.7 mb 0.00 in0.0 mm 0.00 in0.0 mm 0.00 in0.0 mm
05:15 AM 32.5°F0.3°C 31.0°F-0.6°C 94% Calm Calm 11.0 mph17.7 kmh 29.55 in1000.7 mb 0.00 in0.0 mm 0.00 in0.0 mm 0.00 in0.0 mm
05:30 AM 32.4°F0.2°C 30.9°F-0.6°C 94% 5.0 mph NW8.0 kmh NW 12.0 mph19.3 kmh 29.55 in1000.7 mb 0.00 in0.0 mm 0.00 in0.0 mm 0.00 in0.0 mm
05:45 AM 32.3°F0.2°C 30.8°F-0.7°C 94% Calm Calm 11.0 mph17.7 kmh 29.56 in1001.0 mb 0.00 in0.0 mm 0.00 in0.0 mm 0.00 in0.0 mm
06:00 AM 32.1°F0.1°C 30.8°F-0.7°C 95% Calm Calm 11.0 mph17.7 kmh 29.57 in1001.4 mb 0.00 in0.0 mm 0.00 in0.0 mm 0.00 in0.0 mm
06:15 AM 32.0°F0.0°C 30.7°F-0.7°C 95% 2.0 mph NE3.2 kmh NE 8.0 mph12.9 kmh 29.57 in1001.4 mb 0.00 in0.0 mm 0.00 in0.0 mm 0.00 in0.0 mm
06:30 AM 31.9°F-0.1°C 30.6°F-0.8°C 95% 1.0 mph NW1.6 kmh NW 11.0 mph17.7 kmh 29.57 in1001.4 mb 0.00 in0.0 mm 0.00 in0.0 mm 0.00 in0.0 mm
06:45 AM 31.7°F-0.2°C 30.4°F-0.9°C 95% Calm Calm 11.0 mph17.7 kmh 29.58 in1001.7 mb 0.00 in0.0 mm 0.00 in0.0 mm 0.00 in0.0 mm
07:00 AM 31.6°F-0.2°C 30.1°F-1.1°C 94% 4.0 mph N6.4 kmh N 17.0 mph27.4 kmh 29.58 in1001.7 mb 0.00 in0.0 mm 0.00 in0.0 mm 0.00 in0.0 mm
07:15 AM 31.6°F-0.2°C 30.1°F-1.1°C 94% 1.0 mph NNW1.6 kmh NNW 9.0 mph14.5 kmh 29.58 in1001.7 mb 0.00 in0.0 mm 0.00 in0.0 mm 0.00 in0.0 mm
07:30 AM 31.5°F-0.3°C 30.0°F-1.1°C 94% 4.0 mph NNW6.4 kmh NNW 10.0 mph16.1 kmh 29.59 in1002.0 mb 0.00 in0.0 mm 0.00 in0.0 mm 0.00 in0.0 mm
07:45 AM 31.5°F-0.3°C 29.7°F-1.3°C 93% 2.0 mph N3.2 kmh N 10.0 mph16.1 kmh 29.59 in1002.0 mb 0.00 in0.0 mm 0.00 in0.0 mm 0.00 in0.0 mm
08:00 AM 31.6°F-0.2°C 29.8°F-1.2°C 93% 3.0 mph N4.8 kmh N 11.0 mph17.7 kmh 29.59 in1002.0 mb 0.00 in0.0 mm 0.00 in0.0 mm 0.00 in0.0 mm
08:15 AM 31.8°F-0.1°C 29.8°F-1.2°C 92% 5.0 mph N8.0 kmh N 11.0 mph17.7 kmh 29.60 in1002.4 mb 0.00 in0.0 mm 0.00 in0.0 mm 0.00 in0.0 mm
08:30 AM 31.9°F-0.1°C 29.6°F-1.3°C 91% 3.0 mph NE4.8 kmh NE 15.0 mph24.1 kmh 29.61 in1002.7 mb 0.00 in0.0 mm 0.00 in0.0 mm 0.00 in0.0 mm
08:45 AM 32.0°F0.0°C 29.4°F-1.4°C 90% 13.0 mph N20.9 kmh N 13.0 mph20.9 kmh 29.61 in1002.7 mb 0.00 in0.0 mm 0.00 in0.0 mm 0.00 in0.0 mm
09:00 AM 32.2°F0.1°C 29.1°F-1.6°C 88% 5.0 mph NNE8.0 kmh NNE 15.0 mph24.1 kmh 29.61 in1002.7 mb 0.00 in0.0 mm 0.00 in0.0 mm 0.00 in0.0 mm
09:15 AM 32.2°F0.1°C 28.8°F-1.8°C 87% 4.0 mph NW6.4 kmh NW 15.0 mph24.1 kmh 29.61 in1002.7 mb 0.00 in0.0 mm 0.00 in0.0 mm 0.00 in0.0 mm
09:30 AM 32.2°F0.1°C 28.8°F-1.8°C 87% 3.0 mph NE4.8 kmh NE 15.0 mph24.1 kmh 29.62 in1003.0 mb 0.00 in0.0 mm 0.00 in0.0 mm 0.00 in0.0 mm
09:45 AM 32.3°F0.2°C 28.6°F-1.9°C 86% 5.0 mph WNW8.0 kmh WNW 17.0 mph27.4 kmh 29.63 in1003.4 mb 0.00 in0.0 mm 0.00 in0.0 mm 0.00 in0.0 mm
10:00 AM 32.3°F0.2°C 28.6°F-1.9°C 86% 2.0 mph NE3.2 kmh NE 17.0 mph27.4 kmh 29.64 in1003.7 mb 0.00 in0.0 mm 0.00 in0.0 mm 0.00 in0.0 mm
10:15 AM 32.4°F0.2°C 28.7°F-1.8°C 86% 4.0 mph ENE6.4 kmh ENE 13.0 mph20.9 kmh 29.64 in1003.7 mb 0.00 in0.0 mm 0.00 in0.0 mm 0.00 in0.0 mm
10:30 AM 32.5°F0.3°C 28.5°F-1.9°C 85% 2.0 mph N3.2 kmh N 13.0 mph20.9 kmh 29.65 in1004.1 mb 0.00 in0.0 mm 0.00 in0.0 mm 0.00 in0.0 mm
10:45 AM 32.6°F0.3°C 28.3°F-2.1°C 84% 4.0 mph NE6.4 kmh NE 14.0 mph22.5 kmh 29.66 in1004.4 mb 0.00 in0.0 mm 0.00 in0.0 mm 0.00 in0.0 mm
11:00 AM 32.8°F0.4°C 28.5°F-1.9°C 84% 4.0 mph NE6.4 kmh NE 14.0 mph22.5 kmh 29.66 in1004.4 mb 0.00 in0.0 mm 0.00 in0.0 mm 0.00 in0.0 mm
11:15 AM 33.0°F0.6°C 28.4°F-2.0°C 83% 1.0 mph N1.6 kmh N 12.0 mph19.3 kmh 29.66 in1004.4 mb 0.00 in0.0 mm 0.00 in0.0 mm 0.00 in0.0 mm
11:30 AM 33.3°F0.7°C 28.4°F-2.0°C 82% 1.0 mph NE1.6 kmh NE 14.0 mph22.5 kmh 29.65 in1004.1 mb 0.00 in0.0 mm 0.00 in0.0 mm 0.00 in0.0 mm
11:45 AM 33.5°F0.8°C 28.3°F-2.1°C 81% 13.0 mph N20.9 kmh N 16.0 mph25.7 kmh 29.65 in1004.1 mb 0.00 in0.0 mm 0.00 in0.0 mm 0.00 in0.0 mm
12:00 PM 33.5°F0.8°C 28.3°F-2.1°C 81% 5.0 mph NNE8.0 kmh NNE 16.0 mph25.7 kmh 29.66 in1004.4 mb 0.00 in0.0 mm 0.00 in0.0 mm 0.00 in0.0 mm
12:15 PM 33.6°F0.9°C 28.1°F-2.2°C 80% 5.0 mph NNE8.0 kmh NNE 12.0 mph19.3 kmh 29.66 in1004.4 mb 0.00 in0.0 mm 0.00 in0.0 mm 0.00 in0.0 mm
12:30 PM 33.5°F0.8°C 28.0°F-2.2°C 80% 3.0 mph NE4.8 kmh NE 13.0 mph20.9 kmh 29.66 in1004.4 mb 0.00 in0.0 mm 0.00 in0.0 mm 0.00 in0.0 mm
12:45 PM 33.4°F0.8°C 27.9°F-2.3°C 80% 7.0 mph N11.3 kmh N 14.0 mph22.5 kmh 29.67 in1004.7 mb 0.00 in0.0 mm 0.00 in0.0 mm 0.00 in0.0 mm
01:00 PM 33.4°F0.8°C 27.9°F-2.3°C 80% 6.0 mph N9.7 kmh N 14.0 mph22.5 kmh 29.67 in1004.7 mb 0.00 in0.0 mm 0.00 in0.0 mm 0.00 in0.0 mm
01:15 PM 33.4°F0.8°C 27.6°F-2.4°C 79% 9.0 mph NE14.5 kmh NE 12.0 mph19.3 kmh 29.67 in1004.7 mb 0.00 in0.0 mm 0.00 in0.0 mm 0.00 in0.0 mm
01:30 PM 33.5°F0.8°C 27.7°F-2.4°C 79% 1.0 mph NW1.6 kmh NW 13.0 mph20.9 kmh 29.68 in1005.1 mb 0.00 in0.0 mm 0.00 in0.0 mm 0.00 in0.0 mm
01:45 PM 33.6°F0.9°C 27.5°F-2.5°C 78% 4.0 mph NW6.4 kmh NW 11.0 mph17.7 kmh 29.68 in1005.1 mb 0.00 in0.0 mm 0.00 in0.0 mm 0.00 in0.0 mm
02:00 PM 33.5°F0.8°C 27.4°F-2.6°C 78% 4.0 mph NNE6.4 kmh NNE 13.0 mph20.9 kmh 29.69 in1005.4 mb 0.00 in0.0 mm 0.00 in0.0 mm 0.00 in0.0 mm
02:15 PM 33.4°F0.8°C 27.3°F-2.6°C 78% 7.0 mph NW11.3 kmh NW 10.0 mph16.1 kmh 29.70 in1005.8 mb 0.00 in0.0 mm 0.00 in0.0 mm 0.00 in0.0 mm
02:30 PM 33.4°F0.8°C 27.6°F-2.4°C 79% 4.0 mph N6.4 kmh N 11.0 mph17.7 kmh 29.70 in1005.8 mb 0.00 in0.0 mm 0.00 in0.0 mm 0.00 in0.0 mm
02:45 PM 33.3°F0.7°C 27.2°F-2.7°C 78% 3.0 mph NNE4.8 kmh NNE 10.0 mph16.1 kmh 29.72 in1006.4 mb 0.01 in0.3 mm 0.04 in1.0 mm 0.01 in0.3 mm
03:00 PM 33.2°F0.7°C 27.1°F-2.7°C 78% 2.0 mph NNE3.2 kmh NNE 13.0 mph20.9 kmh 29.73 in1006.8 mb 0.01 in0.3 mm 0.00 in0.0 mm 0.01 in0.3 mm
03:15 PM 33.2°F0.7°C 27.1°F-2.7°C 78% 3.0 mph N4.8 kmh N 12.0 mph19.3 kmh 29.74 in1007.1 mb 0.01 in0.3 mm 0.00 in0.0 mm 0.01 in0.3 mm
03:30 PM 33.0°F0.6°C 26.6°F-3.0°C 77% 1.0 mph NE1.6 kmh NE 12.0 mph19.3 kmh 29.75 in1007.5 mb 0.01 in0.3 mm 0.00 in0.0 mm 0.01 in0.3 mm
03:45 PM 32.9°F0.5°C 27.1°F-2.7°C 79% 3.0 mph NW4.8 kmh NW 10.0 mph16.1 kmh 29.75 in1007.5 mb 0.01 in0.3 mm 0.00 in0.0 mm 0.01 in0.3 mm
04:00 PM 32.6°F0.3°C 27.1°F-2.7°C 80% 1.0 mph NNE1.6 kmh NNE 11.0 mph17.7 kmh 29.76 in1007.8 mb 0.01 in0.3 mm 0.00 in0.0 mm 0.01 in0.3 mm
04:15 PM 32.2°F0.1°C 26.7°F-2.9°C 80% 6.0 mph NE9.7 kmh NE 11.0 mph17.7 kmh 29.77 in1008.1 mb 0.00 in0.0 mm 0.00 in0.0 mm 0.01 in0.3 mm
04:30 PM 31.9°F-0.1°C 26.7°F-2.9°C 81% 7.0 mph NW11.3 kmh NW 11.0 mph17.7 kmh 29.78 in1008.5 mb 0.00 in0.0 mm 0.00 in0.0 mm 0.01 in0.3 mm
04:45 PM 31.6°F-0.2°C 26.8°F-2.9°C 82% Calm Calm 12.0 mph19.3 kmh 29.79 in1008.8 mb 0.00 in0.0 mm 0.00 in0.0 mm 0.01 in0.3 mm
05:00 PM 31.3°F-0.4°C 26.5°F-3.1°C 82% Calm Calm 13.0 mph20.9 kmh 29.80 in1009.1 mb 0.00 in0.0 mm 0.00 in0.0 mm 0.01 in0.3 mm
05:15 PM 31.1°F-0.5°C 26.6°F-3.0°C 83% 2.0 mph NW3.2 kmh NW 10.0 mph16.1 kmh 29.80 in1009.1 mb 0.00 in0.0 mm 0.00 in0.0 mm 0.01 in0.3 mm
05:30 PM 31.0°F-0.6°C 26.7°F-2.9°C 84% 2.0 mph N3.2 kmh N 11.0 mph17.7 kmh 29.81 in1009.5 mb 0.00 in0.0 mm 0.00 in0.0 mm 0.01 in0.3 mm
05:45 PM 30.8°F-0.7°C 26.8°F-2.9°C 85% 5.0 mph NE8.0 kmh NE 9.0 mph14.5 kmh 29.83 in1010.2 mb 0.00 in0.0 mm 0.00 in0.0 mm 0.01 in0.3 mm
06:00 PM 30.7°F-0.7°C 26.7°F-2.9°C 85% 1.0 mph N1.6 kmh N 10.0 mph16.1 kmh 29.83 in1010.2 mb 0.00 in0.0 mm 0.00 in0.0 mm 0.01 in0.3 mm
06:15 PM 30.5°F-0.8°C 26.5°F-3.1°C 85% 5.0 mph W8.0 kmh W 14.0 mph22.5 kmh 29.84 in1010.5 mb 0.00 in0.0 mm 0.00 in0.0 mm 0.01 in0.3 mm
06:30 PM 30.5°F-0.8°C 26.5°F-3.1°C 85% 2.0 mph N3.2 kmh N 14.0 mph22.5 kmh 29.84 in1010.5 mb 0.00 in0.0 mm 0.00 in0.0 mm 0.01 in0.3 mm
06:45 PM 30.4°F-0.9°C 26.4°F-3.1°C 85% 4.0 mph NW6.4 kmh NW 9.0 mph14.5 kmh 29.85 in1010.8 mb 0.00 in0.0 mm 0.00 in0.0 mm 0.01 in0.3 mm
07:00 PM 30.3°F-0.9°C 26.3°F-3.2°C 85% 2.0 mph N3.2 kmh N 12.0 mph19.3 kmh 29.86 in1011.2 mb 0.00 in0.0 mm 0.00 in0.0 mm 0.01 in0.3 mm
07:15 PM 30.1°F-1.1°C 26.1°F-3.3°C 85% 3.0 mph NNE4.8 kmh NNE 11.0 mph17.7 kmh 29.86 in1011.2 mb 0.00 in0.0 mm 0.00 in0.0 mm 0.01 in0.3 mm
07:30 PM 30.0°F-1.1°C 26.1°F-3.3°C 85% 5.0 mph W8.0 kmh W 12.0 mph19.3 kmh 29.86 in1011.2 mb 0.00 in0.0 mm 0.00 in0.0 mm 0.01 in0.3 mm
07:45 PM 30.0°F-1.1°C 26.1°F-3.3°C 85% 1.0 mph NNW1.6 kmh NNW 9.0 mph14.5 kmh 29.88 in1011.9 mb 0.00 in0.0 mm 0.00 in0.0 mm 0.01 in0.3 mm
08:00 PM 29.9°F-1.2°C 26.0°F-3.3°C 85% 2.0 mph NNW3.2 kmh NNW 9.0 mph14.5 kmh 29.88 in1011.9 mb 0.00 in0.0 mm 0.00 in0.0 mm 0.01 in0.3 mm
08:15 PM 29.9°F-1.2°C 26.0°F-3.3°C 85% 4.0 mph WNW6.4 kmh WNW 9.0 mph14.5 kmh 29.89 in1012.2 mb 0.00 in0.0 mm 0.00 in0.0 mm 0.01 in0.3 mm
08:30 PM 29.8°F-1.2°C 25.9°F-3.4°C 85% 4.0 mph NW6.4 kmh NW 10.0 mph16.1 kmh 29.90 in1012.5 mb 0.00 in0.0 mm 0.00 in0.0 mm 0.01 in0.3 mm
08:45 PM 29.6°F-1.3°C 25.9°F-3.4°C 86% 1.0 mph NNW1.6 kmh NNW 9.0 mph14.5 kmh 29.91 in1012.9 mb 0.00 in0.0 mm 0.00 in0.0 mm 0.01 in0.3 mm
09:00 PM 29.5°F-1.4°C 25.8°F-3.4°C 86% 3.0 mph NNW4.8 kmh NNW 9.0 mph14.5 kmh 29.91 in1012.9 mb 0.00 in0.0 mm 0.00 in0.0 mm 0.01 in0.3 mm
09:15 PM 29.5°F-1.4°C 25.8°F-3.4°C 86% 1.0 mph NW1.6 kmh NW 8.0 mph12.9 kmh 29.92 in1013.2 mb 0.00 in0.0 mm 0.00 in0.0 mm 0.01 in0.3 mm
09:30 PM 29.3°F-1.5°C 25.6°F-3.6°C 86% Calm Calm 8.0 mph12.9 kmh 29.92 in1013.2 mb 0.00 in0.0 mm 0.00 in0.0 mm 0.01 in0.3 mm
09:45 PM 29.2°F-1.6°C 25.8°F-3.4°C 87% Calm Calm 8.0 mph12.9 kmh 29.93 in1013.5 mb 0.00 in0.0 mm 0.00 in0.0 mm 0.01 in0.3 mm
10:00 PM 29.1°F-1.6°C 25.7°F-3.5°C 87% 2.0 mph NW3.2 kmh NW 8.0 mph12.9 kmh 29.93 in1013.5 mb 0.00 in0.0 mm 0.00 in0.0 mm 0.01 in0.3 mm
10:15 PM 29.0°F-1.7°C 25.6°F-3.6°C 87% Calm Calm 5.0 mph8.0 kmh 29.94 in1013.9 mb 0.00 in0.0 mm 0.00 in0.0 mm 0.01 in0.3 mm
10:30 PM 29.0°F-1.7°C 25.6°F-3.6°C 87% 1.0 mph N1.6 kmh N 6.0 mph9.7 kmh 29.95 in1014.2 mb 0.00 in0.0 mm 0.00 in0.0 mm 0.01 in0.3 mm
10:45 PM 28.9°F-1.7°C 25.5°F-3.6°C 87% 1.0 mph NNW1.6 kmh NNW 11.0 mph17.7 kmh 29.96 in1014.6 mb 0.00 in0.0 mm 0.00 in0.0 mm 0.01 in0.3 mm
11:00 PM 28.9°F-1.7°C 25.5°F-3.6°C 87% 3.0 mph N4.8 kmh N 11.0 mph17.7 kmh 29.97 in1014.9 mb 0.00 in0.0 mm 0.00 in0.0 mm 0.01 in0.3 mm
11:15 PM 28.9°F-1.7°C 25.5°F-3.6°C 87% 2.0 mph N3.2 kmh N 6.0 mph9.7 kmh 29.97 in1014.9 mb 0.00 in0.0 mm 0.00 in0.0 mm 0.01 in0.3 mm
11:30 PM 28.9°F-1.7°C 25.5°F-3.6°C 87% 1.0 mph N1.6 kmh N 8.0 mph12.9 kmh 29.98 in1015.2 mb 0.00 in0.0 mm 0.00 in0.0 mm 0.01 in0.3 mm
11:45 PM 28.8°F-1.8°C 25.4°F-3.7°C 87% Calm Calm 7.0 mph11.3 kmh 29.99 in1015.6 mb 0.00 in0.0 mm 0.00 in0.0 mm 0.01 in0.3 mm